M\v Black Rhino — V7TR7 — position and weather

sailwx.info

Track history (hours):
 
Tides and Currents Weather Stations Pressure Air Temp Water Temp Dewpoint Dewpoint Depression Visibility Wind Speed Wind Dir Waves Ship Positions

M\v Black Rhino

Last reported at 2015-May-25 03:29 UTC. Time now 2015-May-29 18:27 UTC.
Position S 27°60' E 032°42'.

Length 100 m; draft 6 m.

Type: Cargo ship. MMSI: 538090408.

Date/timePositionNaut miles runAvg speedWind from/ knotsBaromVisibWave heightAir tempDewpointWater temp
2015-May-25 03:29S 27°60' E 032°42'22 9.5
2015-May-25 01:10S 28°21' E 032°36'18 9.5
2015-May-24 23:18S 28°38' E 032°31'7 9.3
2015-May-24 22:33S 28°44' E 032°27'10 9.2
2015-May-24 21:30S 28°51' E 032°19'8 8.5
2015-May-24 20:33S 28°57' E 032°13'9 9.0
2015-May-24 19:31S 29°04' E 032°05'1010.9
2015-May-24 18:33S 29°10' E 031°55'1211.6
2015-May-24 17:31S 29°18' E 031°45'1111.7
2015-May-24 16:33S 29°26' E 031°35'1212.0
2015-May-24 15:33S 29°34' E 031°26'1211.8
2015-May-24 14:33S 29°43' E 031°17'1211.9
2015-May-24 13:33S 29°50' E 031°06'4 3.8
2015-May-24 12:33S 29°52' E 031°03'0 0.0
2015-May-24 11:33S 29°52' E 031°03'0 0.0
2015-May-24 10:33S 29°52' E 031°03'0 0.0
2015-May-24 09:33S 29°52' E 031°03'0 0.0
2015-May-24 08:33S 29°52' E 031°03'0 0.0
2015-May-24 07:27S 29°52' E 031°03'0 0.0
2015-May-24 06:27S 29°52' E 031°03'0 0.0
2015-May-24 05:33S 29°52' E 031°03'0 0.0
2015-May-24 04:33S 29°52' E 031°03'0 0.0
2015-May-24 03:33S 29°52' E 031°03'0 0.0
2015-May-24 02:33S 29°52' E 031°03'0 0.0
2015-May-24 01:30S 29°52' E 031°03'0 0.0
2015-May-24 00:30S 29°52' E 031°03'0 0.0
2015-May-23 23:30S 29°52' E 031°03'0 0.0
2015-May-23 22:30S 29°52' E 031°03'0 0.0
2015-May-23 21:30S 29°52' E 031°03'0 0.0
2015-May-23 20:30S 29°52' E 031°03'0 0.0
2015-May-23 19:30S 29°52' E 031°03'0 0.0
2015-May-23 18:30S 29°52' E 031°03'0 0.0
2015-May-23 17:30S 29°52' E 031°03'0 0.0
2015-May-23 16:30S 29°52' E 031°03'0 0.0
2015-May-23 15:30S 29°52' E 031°03'0 0.0
2015-May-23 14:30S 29°52' E 031°03'0 0.0
2015-May-23 13:24S 29°52' E 031°03'0 0.0
2015-May-23 12:30S 29°52' E 031°03'0 0.0
2015-May-23 10:06S 29°52' E 031°03'0 0.0
2015-May-23 09:30S 29°52' E 031°03'0 0.0
2015-May-23 08:30S 29°52' E 031°03'0 0.0
2015-May-23 07:24S 29°52' E 031°03'0 0.0
2015-May-23 06:24S 29°52' E 031°03'0 0.0
2015-May-23 05:30S 29°52' E 031°03'0 0.0
2015-May-23 04:24S 29°52' E 031°03'0 0.0
2015-May-23 03:24S 29°52' E 031°03'0 0.0
2015-May-23 02:30S 29°52' E 031°03'0 0.0
2015-May-23 01:24S 29°52' E 031°03'0 0.0
2015-May-23 00:30S 29°52' E 031°03'0 0.0
2015-May-22 23:24S 29°52' E 031°03'0 0.0
2015-May-22 22:30S 29°52' E 031°03'0 0.0
2015-May-22 21:24S 29°52' E 031°03'0 0.0
2015-May-22 20:30S 29°52' E 031°03'0 0.0
2015-May-22 19:24S 29°52' E 031°03'0 0.0
2015-May-22 18:30S 29°52' E 031°03'0 0.0
2015-May-22 17:18S 29°52' E 031°03'0 0.0
2015-May-22 16:30S 29°52' E 031°03'0 0.0
2015-May-22 15:30S 29°52' E 031°03'0 0.0
2015-May-22 14:24S 29°52' E 031°03'0 0.0
2015-May-22 13:24S 29°52' E 031°03'0 0.0
2015-May-22 12:24S 29°52' E 031°03'0 0.0
2015-May-22 09:30S 29°52' E 031°03'0 0.0
2015-May-22 08:30S 29°52' E 031°03'0 0.0
2015-May-22 07:33S 29°52' E 031°03'5 4.7
2015-May-22 06:33S 29°49' E 031°06'2 1.5
2015-May-22 05:22S 29°47' E 031°07'3 3.2
2015-May-22 04:33S 29°45' E 031°08'2 1.6
2015-May-22 03:18S 29°43' E 031°10'0 0.0
2015-May-22 02:30S 29°43' E 031°10'0 0.0
2015-May-22 01:18S 29°43' E 031°10'0 0.0
2015-May-22 00:30S 29°43' E 031°10'0 0.0
2015-May-21 23:30S 29°43' E 031°10'0 0.0
2015-May-21 22:24S 29°43' E 031°10'0 0.0
2015-May-21 21:30S 29°43' E 031°10'0 0.0
2015-May-21 20:24S 29°43' E 031°10'0 0.0
2015-May-21 19:30S 29°43' E 031°10'0 0.1
2015-May-21 17:30S 29°43' E 031°09'0 0.0
2015-May-21 16:30S 29°44' E 031°09'0 0.0
2015-May-21 15:18S 29°44' E 031°09'0 0.0
2015-May-21 14:30S 29°43' E 031°09'2 0.8
2015-May-21 11:33S 29°44' E 031°07'0 0.3
2015-May-21 10:20S 29°44' E 031°06'0 0.0
2015-May-21 09:32S 29°44' E 031°06'0 0.0
2015-May-21 08:32S 29°44' E 031°06'0 0.0
2015-May-21 07:32S 29°44' E 031°06'0 0.0
2015-May-21 06:26S 29°44' E 031°06'0 0.0
2015-May-21 05:32S 29°44' E 031°06'0 0.0
2015-May-21 04:32S 29°44' E 031°06'0 0.0
2015-May-21 03:26S 29°44' E 031°06'0 0.0
2015-May-21 02:32S 29°44' E 031°06'0 0.0
2015-May-21 01:32S 29°44' E 031°06'0 0.0
2015-May-21 00:32S 29°44' E 031°06'0 0.0
2015-May-20 23:32S 29°44' E 031°06'0 0.1
2015-May-20 22:32S 29°44' E 031°06'0 0.0
2015-May-20 21:32S 29°44' E 031°06'0 0.0
2015-May-20 20:32S 29°44' E 031°06'0 0.0
2015-May-20 19:32S 29°44' E 031°06'0 0.0
2015-May-20 18:32S 29°44' E 031°06'0 0.1
2015-May-20 17:20S 29°44' E 031°06'0 0.0
2015-May-20 16:32S 29°44' E 031°06'0 0.0
2015-May-20 15:32S 29°44' E 031°06'0 0.0
2015-May-20 14:26S 29°44' E 031°06'0 0.0
2015-May-20 13:32S 29°44' E 031°06'0 0.0
2015-May-20 12:32S 29°44' E 031°06'0 0.0
2015-May-20 11:32S 29°44' E 031°06'0 0.0
2015-May-20 10:32S 29°44' E 031°06'0 0.0
2015-May-20 09:32S 29°44' E 031°06'0 0.0
2015-May-20 08:32S 29°44' E 031°06'0 0.0
2015-May-20 07:26S 29°44' E 031°06'0 0.0
2015-May-20 06:20S 29°44' E 031°06'0 0.0
2015-May-20 05:32S 29°44' E 031°06'0 0.0
2015-May-20 04:32S 29°44' E 031°06'0 0.0
2015-May-20 03:20S 29°44' E 031°06'0 0.0
2015-May-20 02:32S 29°44' E 031°06'0 0.0
2015-May-20 01:26S 29°44' E 031°06'0 0.0
2015-May-20 00:32S 29°44' E 031°06'0 0.0
2015-May-19 23:32S 29°44' E 031°06'0 0.0
2015-May-19 22:32S 29°44' E 031°06'0 0.0
2015-May-19 21:32S 29°44' E 031°06'0 0.0
2015-May-19 20:14S 29°44' E 031°06'0 0.0
2015-May-19 19:26S 29°44' E 031°06'0 0.2
2015-May-19 18:32S 29°44' E 031°06'0 0.0
2015-May-19 17:32S 29°44' E 031°06'0 0.0
2015-May-19 16:32S 29°44' E 031°06'0 0.0
2015-May-19 15:32S 29°44' E 031°06'0 0.0
2015-May-19 14:32S 29°44' E 031°06'0 0.0
2015-May-19 13:32S 29°44' E 031°06'0 0.0
2015-May-19 12:26S 29°44' E 031°06'0 0.0
2015-May-19 11:32S 29°44' E 031°06'0 0.0
2015-May-19 10:32S 29°44' E 031°06'0 0.0
2015-May-19 09:32S 29°44' E 031°06'0 0.0
2015-May-19 08:32S 29°44' E 031°06'0 0.0
2015-May-19 07:32S 29°44' E 031°06'0 0.1
2015-May-19 06:20S 29°44' E 031°06'0 0.2
2015-May-19 05:22S 29°44' E 031°06'0 0.1
2015-May-19 04:22S 29°44' E 031°06'0 0.1
2015-May-19 03:28S 29°44' E 031°06'0 0.0
2015-May-19 02:28S 29°44' E 031°06'0 0.0
2015-May-19 01:28S 29°44' E 031°06'0 0.0
2015-May-19 00:28S 29°44' E 031°06'0 0.0
2015-May-18 23:28S 29°44' E 031°06'0 0.0
2015-May-18 22:28S 29°44' E 031°06'0 0.0
2015-May-18 21:28S 29°44' E 031°06'0 0.0
2015-May-18 20:28S 29°44' E 031°06'0 0.0
2015-May-18 19:10S 29°44' E 031°06'0 0.0
2015-May-18 18:22S 29°44' E 031°06'0 0.0
2015-May-18 17:28S 29°44' E 031°06'0 0.0
2015-May-16 18:21S 29°44' E 031°07'9 1.3
2015-May-16 11:28S 29°52' E 031°03'0 0.0
2015-May-16 10:28S 29°52' E 031°03'0 0.0
2015-May-16 09:28S 29°52' E 031°03'0 0.0
2015-May-16 08:28S 29°52' E 031°03'0 0.0
2015-May-16 07:28S 29°52' E 031°03'0 0.0
2015-May-16 00:16S 29°52' E 031°03'0 0.0
2015-May-15 23:22S 29°52' E 031°03'0 0.0
2015-May-15 22:28S 29°52' E 031°03'0 0.0
2015-May-15 21:28S 29°52' E 031°03'0 0.0
2015-May-15 20:28S 29°52' E 031°03'0 0.0
2015-May-15 19:28S 29°52' E 031°03'0 0.0
2015-May-15 18:28S 29°52' E 031°03'0 0.0
2015-May-15 17:04S 29°52' E 031°03'0 0.0
2015-May-15 16:28S 29°52' E 031°03'0 0.0
2015-May-15 15:28S 29°52' E 031°03'0 0.0
2015-May-15 14:28S 29°52' E 031°03'6 1.0
2015-May-15 08:09S 29°49' E 031°09'0 0.7
2015-May-15 07:33S 29°49' E 031°09'2 2.2
2015-May-15 06:32S 29°47' E 031°10'1312.8
2015-May-15 05:33S 29°38' E 031°21'1312.7
2015-May-15 04:33S 29°29' E 031°31'  
Track history (hours):
 
Tides and Currents Weather Stations Pressure Air Temp Water Temp Dewpoint Dewpoint Depression Visibility Wind Speed Wind Dir Waves Ship Positions

M\v Black Rhino

Last reported at 2015-May-25 03:29 UTC. Time now 2015-May-29 18:27 UTC.
Position S 27°60' E 032°42'.

Length 100 m; draft 6 m.

Type: Cargo ship. MMSI: 538090408.

Date/timePositionNaut miles runAvg speedWind from/ knotsBaromVisibWave heightAir tempDewpointWater temp
2015-May-25 03:29S 27°60' E 032°42'22 9.5
2015-May-25 01:10S 28°21' E 032°36'18 9.5
2015-May-24 23:18S 28°38' E 032°31'7 9.3
2015-May-24 22:33S 28°44' E 032°27'10 9.2
2015-May-24 21:30S 28°51' E 032°19'8 8.5
2015-May-24 20:33S 28°57' E 032°13'9 9.0
2015-May-24 19:31S 29°04' E 032°05'1010.9
2015-May-24 18:33S 29°10' E 031°55'1211.6
2015-May-24 17:31S 29°18' E 031°45'1111.7
2015-May-24 16:33S 29°26' E 031°35'1212.0
2015-May-24 15:33S 29°34' E 031°26'1211.8
2015-May-24 14:33S 29°43' E 031°17'1211.9
2015-May-24 13:33S 29°50' E 031°06'4 3.8
2015-May-24 12:33S 29°52' E 031°03'0 0.0
2015-May-24 11:33S 29°52' E 031°03'0 0.0
2015-May-24 10:33S 29°52' E 031°03'0 0.0
2015-May-24 09:33S 29°52' E 031°03'0 0.0
2015-May-24 08:33S 29°52' E 031°03'0 0.0
2015-May-24 07:27S 29°52' E 031°03'0 0.0
2015-May-24 06:27S 29°52' E 031°03'0 0.0
2015-May-24 05:33S 29°52' E 031°03'0 0.0
2015-May-24 04:33S 29°52' E 031°03'0 0.0
2015-May-24 03:33S 29°52' E 031°03'0 0.0
2015-May-24 02:33S 29°52' E 031°03'0 0.0
2015-May-24 01:30S 29°52' E 031°03'0 0.0
2015-May-24 00:30S 29°52' E 031°03'0 0.0
2015-May-23 23:30S 29°52' E 031°03'0 0.0
2015-May-23 22:30S 29°52' E 031°03'0 0.0
2015-May-23 21:30S 29°52' E 031°03'0 0.0
2015-May-23 20:30S 29°52' E 031°03'0 0.0
2015-May-23 19:30S 29°52' E 031°03'0 0.0
2015-May-23 18:30S 29°52' E 031°03'0 0.0
2015-May-23 17:30S 29°52' E 031°03'0 0.0
2015-May-23 16:30S 29°52' E 031°03'0 0.0
2015-May-23 15:30S 29°52' E 031°03'0 0.0
2015-May-23 14:30S 29°52' E 031°03'0 0.0
2015-May-23 13:24S 29°52' E 031°03'0 0.0
2015-May-23 12:30S 29°52' E 031°03'0 0.0
2015-May-23 10:06S 29°52' E 031°03'0 0.0
2015-May-23 09:30S 29°52' E 031°03'0 0.0
2015-May-23 08:30S 29°52' E 031°03'0 0.0
2015-May-23 07:24S 29°52' E 031°03'0 0.0
2015-May-23 06:24S 29°52' E 031°03'0 0.0
2015-May-23 05:30S 29°52' E 031°03'0 0.0
2015-May-23 04:24S 29°52' E 031°03'0 0.0
2015-May-23 03:24S 29°52' E 031°03'0 0.0
2015-May-23 02:30S 29°52' E 031°03'0 0.0
2015-May-23 01:24S 29°52' E 031°03'0 0.0
2015-May-23 00:30S 29°52' E 031°03'0 0.0
2015-May-22 23:24S 29°52' E 031°03'0 0.0
2015-May-22 22:30S 29°52' E 031°03'0 0.0
2015-May-22 21:24S 29°52' E 031°03'0 0.0
2015-May-22 20:30S 29°52' E 031°03'0 0.0
2015-May-22 19:24S 29°52' E 031°03'0 0.0
2015-May-22 18:30S 29°52' E 031°03'0 0.0
2015-May-22 17:18S 29°52' E 031°03'0 0.0
2015-May-22 16:30S 29°52' E 031°03'0 0.0
2015-May-22 15:30S 29°52' E 031°03'0 0.0
2015-May-22 14:24S 29°52' E 031°03'0 0.0
2015-May-22 13:24S 29°52' E 031°03'0 0.0
2015-May-22 12:24S 29°52' E 031°03'0 0.0
2015-May-22 09:30S 29°52' E 031°03'0 0.0
2015-May-22 08:30S 29°52' E 031°03'0 0.0
2015-May-22 07:33S 29°52' E 031°03'5 4.7
2015-May-22 06:33S 29°49' E 031°06'2 1.5
2015-May-22 05:22S 29°47' E 031°07'3 3.2
2015-May-22 04:33S 29°45' E 031°08'2 1.6
2015-May-22 03:18S 29°43' E 031°10'0 0.0
2015-May-22 02:30S 29°43' E 031°10'0 0.0
2015-May-22 01:18S 29°43' E 031°10'0 0.0
2015-May-22 00:30S 29°43' E 031°10'0 0.0
2015-May-21 23:30S 29°43' E 031°10'0 0.0
2015-May-21 22:24S 29°43' E 031°10'0 0.0
2015-May-21 21:30S 29°43' E 031°10'0 0.0
2015-May-21 20:24S 29°43' E 031°10'0 0.0
2015-May-21 19:30S 29°43' E 031°10'0 0.1
2015-May-21 17:30S 29°43' E 031°09'0 0.0
2015-May-21 16:30S 29°44' E 031°09'0 0.0
2015-May-21 15:18S 29°44' E 031°09'0 0.0
2015-May-21 14:30S 29°43' E 031°09'2 0.8
2015-May-21 11:33S 29°44' E 031°07'0 0.3
2015-May-21 10:20S 29°44' E 031°06'0 0.0
2015-May-21 09:32S 29°44' E 031°06'0 0.0
2015-May-21 08:32S 29°44' E 031°06'0 0.0
2015-May-21 07:32S 29°44' E 031°06'0 0.0
2015-May-21 06:26S 29°44' E 031°06'0 0.0
2015-May-21 05:32S 29°44' E 031°06'0 0.0
2015-May-21 04:32S 29°44' E 031°06'0 0.0
2015-May-21 03:26S 29°44' E 031°06'0 0.0
2015-May-21 02:32S 29°44' E 031°06'0 0.0
2015-May-21 01:32S 29°44' E 031°06'0 0.0
2015-May-21 00:32S 29°44' E 031°06'0 0.0
2015-May-20 23:32S 29°44' E 031°06'0 0.1
2015-May-20 22:32S 29°44' E 031°06'0 0.0
2015-May-20 21:32S 29°44' E 031°06'0 0.0
2015-May-20 20:32S 29°44' E 031°06'0 0.0
2015-May-20 19:32S 29°44' E 031°06'0 0.0
2015-May-20 18:32S 29°44' E 031°06'0 0.1
2015-May-20 17:20S 29°44' E 031°06'0 0.0
2015-May-20 16:32S 29°44' E 031°06'0 0.0
2015-May-20 15:32S 29°44' E 031°06'0 0.0
2015-May-20 14:26S 29°44' E 031°06'0 0.0
2015-May-20 13:32S 29°44' E 031°06'0 0.0
2015-May-20 12:32S 29°44' E 031°06'0 0.0
2015-May-20 11:32S 29°44' E 031°06'0 0.0
2015-May-20 10:32S 29°44' E 031°06'0 0.0
2015-May-20 09:32S 29°44' E 031°06'0 0.0
2015-May-20 08:32S 29°44' E 031°06'0 0.0
2015-May-20 07:26S 29°44' E 031°06'0 0.0
2015-May-20 06:20S 29°44' E 031°06'0 0.0
2015-May-20 05:32S 29°44' E 031°06'0 0.0
2015-May-20 04:32S 29°44' E 031°06'0 0.0
2015-May-20 03:20S 29°44' E 031°06'0 0.0
2015-May-20 02:32S 29°44' E 031°06'0 0.0
2015-May-20 01:26S 29°44' E 031°06'0 0.0
2015-May-20 00:32S 29°44' E 031°06'0 0.0
2015-May-19 23:32S 29°44' E 031°06'0 0.0
2015-May-19 22:32S 29°44' E 031°06'0 0.0
2015-May-19 21:32S 29°44' E 031°06'0 0.0
2015-May-19 20:14S 29°44' E 031°06'0 0.0
2015-May-19 19:26S 29°44' E 031°06'0 0.2
2015-May-19 18:32S 29°44' E 031°06'0 0.0
2015-May-19 17:32S 29°44' E 031°06'0 0.0
2015-May-19 16:32S 29°44' E 031°06'0 0.0
2015-May-19 15:32S 29°44' E 031°06'0 0.0
2015-May-19 14:32S 29°44' E 031°06'0 0.0
2015-May-19 13:32S 29°44' E 031°06'0 0.0
2015-May-19 12:26S 29°44' E 031°06'0 0.0
2015-May-19 11:32S 29°44' E 031°06'0 0.0
2015-May-19 10:32S 29°44' E 031°06'0 0.0
2015-May-19 09:32S 29°44' E 031°06'0 0.0
2015-May-19 08:32S 29°44' E 031°06'0 0.0
2015-May-19 07:32S 29°44' E 031°06'0 0.1
2015-May-19 06:20S 29°44' E 031°06'0 0.2
2015-May-19 05:22S 29°44' E 031°06'0 0.1
2015-May-19 04:22S 29°44' E 031°06'0 0.1
2015-May-19 03:28S 29°44' E 031°06'0 0.0
2015-May-19 02:28S 29°44' E 031°06'0 0.0
2015-May-19 01:28S 29°44' E 031°06'0 0.0
2015-May-19 00:28S 29°44' E 031°06'0 0.0
2015-May-18 23:28S 29°44' E 031°06'0 0.0
2015-May-18 22:28S 29°44' E 031°06'0 0.0
2015-May-18 21:28S 29°44' E 031°06'0 0.0
2015-May-18 20:28S 29°44' E 031°06'0 0.0
2015-May-18 19:10S 29°44' E 031°06'0 0.0
2015-May-18 18:22S 29°44' E 031°06'0 0.0
2015-May-18 17:28S 29°44' E 031°06'0 0.0
2015-May-16 18:21S 29°44' E 031°07'9 1.3
2015-May-16 11:28S 29°52' E 031°03'0 0.0
2015-May-16 10:28S 29°52' E 031°03'0 0.0
2015-May-16 09:28S 29°52' E 031°03'0 0.0
2015-May-16 08:28S 29°52' E 031°03'0 0.0
2015-May-16 07:28S 29°52' E 031°03'0 0.0
2015-May-16 00:16S 29°52' E 031°03'0 0.0
2015-May-15 23:22S 29°52' E 031°03'0 0.0
2015-May-15 22:28S 29°52' E 031°03'0 0.0
2015-May-15 21:28S 29°52' E 031°03'0 0.0
2015-May-15 20:28S 29°52' E 031°03'0 0.0
2015-May-15 19:28S 29°52' E 031°03'0 0.0
2015-May-15 18:28S 29°52' E 031°03'0 0.0
2015-May-15 17:04S 29°52' E 031°03'0 0.0
2015-May-15 16:28S 29°52' E 031°03'0 0.0
2015-May-15 15:28S 29°52' E 031°03'0 0.0
2015-May-15 14:28S 29°52' E 031°03'6 1.0
2015-May-15 08:09S 29°49' E 031°09'0 0.7
2015-May-15 07:33S 29°49' E 031°09'2 2.2
2015-May-15 06:32S 29°47' E 031°10'1312.8
2015-May-15 05:33S 29°38' E 031°21'1312.7
2015-May-15 04:33S 29°29' E 031°31'  

Dump ship's entire track history